createdAt,value
2023-02-02T00:05:00.424Z,1.99
2023-02-02T00:07:27.195Z,2.07
2023-02-02T00:09:54.157Z,2.00
2023-02-02T00:12:21.977Z,1.98
2023-02-02T00:14:48.676Z,1.98
2023-02-02T00:17:15.233Z,2.00
2023-02-02T00:19:41.862Z,2.01
2023-02-02T00:22:08.274Z,2.04
2023-02-02T00:24:34.791Z,2.07
2023-02-02T00:27:01.334Z,2.10
2023-02-02T00:29:28.792Z,2.17
2023-02-02T00:31:55.343Z,2.13
2023-02-02T00:34:21.892Z,2.13
2023-02-02T00:36:48.600Z,2.10
2023-02-02T00:39:16.140Z,2.06
2023-02-02T00:41:42.596Z,2.11
2023-02-02T00:44:27.777Z,2.19
2023-02-02T00:46:54.248Z,2.16
2023-02-02T00:49:20.691Z,2.15
2023-02-02T00:51:47.170Z,2.15
2023-02-02T00:54:14.454Z,2.17
2023-02-02T00:56:41.176Z,2.13
2023-02-02T00:59:07.627Z,2.19
2023-02-02T01:01:34.100Z,2.12
2023-02-02T01:04:00.560Z,2.00
2023-02-02T01:06:27.207Z,2.01
2023-02-02T01:08:53.769Z,2.04
2023-02-02T01:11:20.215Z,2.02
2023-02-02T01:13:46.667Z,2.10
2023-02-02T01:16:13.336Z,2.08
2023-02-02T01:18:39.884Z,2.07
2023-02-02T01:21:07.149Z,2.09
2023-02-02T01:23:33.845Z,2.13
2023-02-02T01:26:00.830Z,2.16
2023-02-02T01:28:27.362Z,2.14
2023-02-02T01:30:53.963Z,2.17
2023-02-02T01:33:20.493Z,2.18
2023-02-02T01:35:47.173Z,2.19
2023-02-02T01:38:13.845Z,2.07
2023-02-02T01:40:53.744Z,2.07
2023-02-02T01:43:30.440Z,2.11
2023-02-02T01:45:57.698Z,2.08
2023-02-02T01:48:31.673Z,2.02
2023-02-02T01:50:59.569Z,2.07
2023-02-02T01:53:26.019Z,2.06
2023-02-02T01:55:52.483Z,2.06
2023-02-02T01:58:18.965Z,2.13
2023-02-02T02:00:47.037Z,2.04
2023-02-02T02:03:18.735Z,2.02
2023-02-02T02:05:46.830Z,2.03
2023-02-02T02:08:35.113Z,2.03
2023-02-02T02:11:01.607Z,2.03
2023-02-02T02:13:48.030Z,1.98
2023-02-02T02:16:34.734Z,2.07
2023-02-02T02:19:20.074Z,2.02
2023-02-02T02:22:24.175Z,1.97
2023-02-02T02:25:18.368Z,1.92
2023-02-02T02:27:44.823Z,1.93
2023-02-02T02:30:11.273Z,1.90
2023-02-02T02:32:37.770Z,1.93
2023-02-02T02:35:06.901Z,1.95
2023-02-02T02:37:36.382Z,1.96
2023-02-02T02:40:06.036Z,1.97
2023-02-02T02:42:33.813Z,1.92
2023-02-02T02:45:01.245Z,1.91
2023-02-02T02:47:28.279Z,1.99
2023-02-02T02:49:54.784Z,2.01
2023-02-02T02:52:21.230Z,1.96
2023-02-02T02:54:49.885Z,1.96
2023-02-02T02:57:16.333Z,1.98
2023-02-02T02:59:56.278Z,1.98
2023-02-02T03:02:25.745Z,1.99
2023-02-02T03:05:09.687Z,2.02
2023-02-02T03:07:38.664Z,2.07
2023-02-02T03:10:05.486Z,2.07
2023-02-02T03:12:31.985Z,2.05
2023-02-02T03:14:58.467Z,2.01
2023-02-02T03:17:27.001Z,2.00
2023-02-02T03:19:53.462Z,2.00
2023-02-02T03:22:19.895Z,2.03
2023-02-02T03:24:46.571Z,1.97
2023-02-02T03:27:13.053Z,1.98
2023-02-02T03:29:39.515Z,1.99
2023-02-02T03:32:05.980Z,1.97
2023-02-02T03:34:32.549Z,1.99
2023-02-02T03:36:59.049Z,2.03
2023-02-02T03:39:25.513Z,2.05
2023-02-02T03:41:51.976Z,1.99
2023-02-02T03:44:18.505Z,2.03
2023-02-02T03:46:44.980Z,2.08
2023-02-02T03:49:11.487Z,2.03
2023-02-02T03:51:37.921Z,2.06
2023-02-02T03:54:04.971Z,2.06
2023-02-02T03:56:31.436Z,2.00
2023-02-02T03:58:57.877Z,2.01
2023-02-02T04:04:51.965Z,2.02
2023-02-02T04:07:18.506Z,2.02
2023-02-02T04:09:46.087Z,2.02
2023-02-02T04:12:12.552Z,1.98
2023-02-02T04:14:39.031Z,1.99
2023-02-02T04:17:05.502Z,2.05
2023-02-02T04:19:31.995Z,2.04
2023-02-02T04:21:58.462Z,2.03
2023-02-02T04:24:24.919Z,2.06
2023-02-02T04:26:51.449Z,2.02
2023-02-02T04:29:18.165Z,2.00
2023-02-02T04:31:44.703Z,2.00
2023-02-02T04:34:11.182Z,1.91
2023-02-02T04:36:37.737Z,1.90
2023-02-02T04:39:04.278Z,1.89
2023-02-02T04:41:30.781Z,1.87
2023-02-02T04:43:57.349Z,1.80
2023-02-02T04:46:23.899Z,1.82
2023-02-02T04:48:50.416Z,1.89
2023-02-02T04:51:18.735Z,1.91
2023-02-02T04:57:06.979Z,1.92
2023-02-02T04:59:33.446Z,1.88
2023-02-02T05:02:00.671Z,1.78
2023-02-02T05:04:27.562Z,1.72
2023-02-02T05:06:54.091Z,1.71
2023-02-02T05:09:20.570Z,1.68
2023-02-02T05:11:47.025Z,1.73
2023-02-02T05:14:13.500Z,1.69
2023-02-02T05:16:40.036Z,1.69
2023-02-02T05:19:06.538Z,1.74
2023-02-02T05:21:33.007Z,1.75
2023-02-02T05:24:01.239Z,1.77
2023-02-02T05:26:27.771Z,1.83
2023-02-02T05:28:54.235Z,1.84
2023-02-02T05:31:20.910Z,1.85
2023-02-02T05:33:47.492Z,1.83
2023-02-02T05:36:14.100Z,1.82
2023-02-02T05:38:40.578Z,1.84
2023-02-02T05:41:07.120Z,1.84
2023-02-02T05:43:33.931Z,1.84
2023-02-02T05:46:00.564Z,1.86
2023-02-02T05:48:27.148Z,1.92
2023-02-02T05:51:00.261Z,2.04
2023-02-02T05:53:27.697Z,2.08
2023-02-02T05:55:54.163Z,2.10
2023-02-02T05:58:20.630Z,2.13
2023-02-02T06:00:47.087Z,2.09
2023-02-02T06:03:13.681Z,2.04
2023-02-02T06:05:40.173Z,2.02
2023-02-02T06:08:07.707Z,2.02
2023-02-02T06:10:34.221Z,1.98
2023-02-02T06:13:00.684Z,1.99
2023-02-02T06:15:29.055Z,1.96
2023-02-02T06:17:55.568Z,1.98
2023-02-02T06:20:22.553Z,2.03
2023-02-02T06:22:49.165Z,2.02
2023-02-02T06:25:15.819Z,1.98
2023-02-02T06:27:42.276Z,2.01
2023-02-02T06:30:09.069Z,2.04
2023-02-02T06:32:35.536Z,2.07
2023-02-02T06:35:01.982Z,2.10
2023-02-02T06:37:30.683Z,2.15
2023-02-02T06:39:57.321Z,2.16
2023-02-02T06:42:23.773Z,2.20
2023-02-02T06:44:50.279Z,2.20
2023-02-02T06:47:16.788Z,2.16
2023-02-02T06:49:43.285Z,2.16
2023-02-02T06:52:09.783Z,2.07
2023-02-02T06:54:36.229Z,2.01
2023-02-02T06:57:02.800Z,2.02
2023-02-02T06:59:29.298Z,2.01
2023-02-02T07:01:55.815Z,1.97
2023-02-02T07:04:22.321Z,1.95
2023-02-02T07:06:48.857Z,1.94
2023-02-02T07:09:15.337Z,1.98
2023-02-02T07:11:42.489Z,1.99
2023-02-02T07:14:11.481Z,1.94
2023-02-02T07:16:38.790Z,1.94
2023-02-02T07:19:05.346Z,1.91
2023-02-02T07:21:36.184Z,1.89
2023-02-02T07:24:03.218Z,1.83
2023-02-02T07:26:29.765Z,1.81
2023-02-02T07:28:56.284Z,1.73
2023-02-02T07:31:26.342Z,1.75
2023-02-02T07:33:52.898Z,1.75
2023-02-02T07:36:20.396Z,1.72
2023-02-02T07:38:47.178Z,1.71
2023-02-02T07:41:13.809Z,1.73
2023-02-02T07:43:40.391Z,1.81
2023-02-02T07:46:08.323Z,1.81
2023-02-02T07:48:35.056Z,1.85
2023-02-02T07:51:02.109Z,1.87
2023-02-02T07:53:28.633Z,1.92
2023-02-02T07:56:04.819Z,1.98
2023-02-02T07:58:31.253Z,2.03
2023-02-02T08:01:00.873Z,2.06
2023-02-02T08:03:27.388Z,2.06
2023-02-02T08:05:53.858Z,2.05
2023-02-02T08:08:20.340Z,2.01
2023-02-02T08:10:50.376Z,2.05
2023-02-02T08:13:16.876Z,2.03
2023-02-02T08:15:43.381Z,2.05
2023-02-02T08:18:09.858Z,2.11
2023-02-02T08:20:36.317Z,2.12
2023-02-02T08:23:02.790Z,2.20
2023-02-02T08:25:29.338Z,2.20
2023-02-02T08:27:58.424Z,2.19
2023-02-02T08:33:54.570Z,2.33
2023-02-02T08:36:22.058Z,2.33
2023-02-02T08:38:48.572Z,2.35
2023-02-02T08:41:15.797Z,2.31
2023-02-02T08:43:42.375Z,2.30
2023-02-02T08:46:09.602Z,2.31
2023-02-02T08:48:36.119Z,2.34
2023-02-02T08:51:02.803Z,2.36
2023-02-02T08:53:29.318Z,2.36
2023-02-02T08:55:59.741Z,2.39
2023-02-02T08:58:26.657Z,2.38
2023-02-02T09:00:53.170Z,2.40
2023-02-02T09:03:19.661Z,2.43
2023-02-02T09:05:46.157Z,2.40
2023-02-02T09:08:12.645Z,2.44
2023-02-02T09:10:39.150Z,2.45
2023-02-02T09:13:05.663Z,2.50
2023-02-02T09:15:32.134Z,2.49
2023-02-02T09:17:58.642Z,2.50
2023-02-02T09:20:25.254Z,2.49
2023-02-02T09:22:51.760Z,2.49
2023-02-02T09:25:18.440Z,2.49
2023-02-02T09:27:44.920Z,2.54
2023-02-02T09:30:11.692Z,2.52
2023-02-02T09:32:38.195Z,2.55
2023-02-02T09:35:04.929Z,2.61
2023-02-02T09:37:33.618Z,2.67
2023-02-02T09:40:00.160Z,2.65
2023-02-02T09:42:46.940Z,2.71
2023-02-02T09:45:19.049Z,2.82
2023-02-02T09:47:53.500Z,2.82
2023-02-02T09:50:20.039Z,2.87
2023-02-02T09:52:48.030Z,3.01
2023-02-02T09:55:40.886Z,3.08
2023-02-02T09:58:07.305Z,3.18
2023-02-02T10:00:34.627Z,3.25
2023-02-02T10:03:02.813Z,3.40
2023-02-02T10:05:31.212Z,3.49
2023-02-02T10:07:58.579Z,3.56
2023-02-02T10:10:28.496Z,3.65
2023-02-02T10:12:56.709Z,3.81
2023-02-02T10:15:28.390Z,3.88
2023-02-02T10:18:05.814Z,3.93
2023-02-02T10:20:50.796Z,3.96
2023-02-02T10:23:23.516Z,3.99
2023-02-02T10:26:10.197Z,4.06
2023-02-02T10:32:15.243Z,4.14
2023-02-02T10:34:42.413Z,4.11
2023-02-02T10:37:08.871Z,4.17
2023-02-02T10:39:44.589Z,4.24
2023-02-02T10:42:14.484Z,4.14
2023-02-02T10:44:44.273Z,4.12
2023-02-02T10:47:11.826Z,4.22
2023-02-02T10:49:38.629Z,4.20
2023-02-02T10:52:14.139Z,4.27
2023-02-02T10:54:56.015Z,4.32
2023-02-02T10:57:39.997Z,4.23
2023-02-02T11:00:11.032Z,4.15
2023-02-02T11:02:37.548Z,4.10
2023-02-02T11:05:22.776Z,4.12
2023-02-02T11:07:49.713Z,4.06
2023-02-02T11:10:16.338Z,4.16
2023-02-02T11:12:46.255Z,4.17
2023-02-02T11:15:28.821Z,4.12
2023-02-02T11:17:55.291Z,4.09
2023-02-02T11:20:23.114Z,4.05
2023-02-02T11:22:49.961Z,4.08
2023-02-02T11:25:26.586Z,4.15
2023-02-02T11:27:53.062Z,4.10
2023-02-02T11:30:21.968Z,4.12
2023-02-02T11:32:49.744Z,4.17
2023-02-02T11:35:23.323Z,4.08
2023-02-02T11:37:54.136Z,4.20
2023-02-02T11:40:24.755Z,4.10
2023-02-02T11:42:51.870Z,4.14
2023-02-02T11:45:20.253Z,4.21
2023-02-02T11:47:46.718Z,4.18
2023-02-02T11:50:17.958Z,4.21
2023-02-02T11:52:44.958Z,4.21
2023-02-02T11:55:15.125Z,4.19
2023-02-02T11:57:41.585Z,4.21
2023-02-02T12:03:39.723Z,4.43
2023-02-02T12:06:25.317Z,4.51
2023-02-02T12:12:13.549Z,4.55
2023-02-02T12:14:46.093Z,4.56
2023-02-02T12:17:12.519Z,4.53
2023-02-02T12:19:42.029Z,4.52
2023-02-02T12:22:10.536Z,4.45
2023-02-02T12:24:50.060Z,4.45
2023-02-02T12:27:19.622Z,4.51
2023-02-02T12:29:49.059Z,4.62
2023-02-02T12:32:21.989Z,4.67
2023-02-02T12:34:54.601Z,4.69
2023-02-02T12:37:21.070Z,4.72
2023-02-02T12:39:47.510Z,4.72
2023-02-02T12:42:23.103Z,4.75
2023-02-02T12:45:03.485Z,4.73
2023-02-02T12:47:33.085Z,4.77
2023-02-02T12:50:14.911Z,4.77
2023-02-02T12:52:51.319Z,4.68
2023-02-02T12:55:24.290Z,4.67
2023-02-02T12:57:53.539Z,4.69
2023-02-02T13:00:39.654Z,4.77
2023-02-02T13:03:06.248Z,4.71
2023-02-02T13:05:36.851Z,4.69
2023-02-02T13:08:13.035Z,4.61
2023-02-02T13:10:43.126Z,4.58
2023-02-02T13:13:09.595Z,4.58
2023-02-02T13:15:36.384Z,4.61
2023-02-02T13:18:29.292Z,4.58
2023-02-02T13:20:56.687Z,4.60
2023-02-02T13:23:29.004Z,4.64
2023-02-02T13:26:00.606Z,4.60
2023-02-02T13:28:38.305Z,4.60
2023-02-02T13:31:06.550Z,4.55
2023-02-02T13:33:34.119Z,4.51
2023-02-02T13:36:01.163Z,4.47
2023-02-02T13:38:30.467Z,4.44
2023-02-02T13:41:00.632Z,4.41
2023-02-02T13:43:34.963Z,4.35
2023-02-02T13:46:20.303Z,4.37
2023-02-02T13:49:06.773Z,4.25
2023-02-02T13:51:51.139Z,4.24
2023-02-02T13:54:36.349Z,4.25
2023-02-02T13:57:15.843Z,4.24
2023-02-02T13:59:42.331Z,4.21
2023-02-02T14:02:20.893Z,4.22
2023-02-02T14:04:52.423Z,4.18
2023-02-02T14:07:19.434Z,4.16
2023-02-02T14:09:47.239Z,4.18
2023-02-02T14:12:27.498Z,4.25
2023-02-02T14:14:53.987Z,4.32
2023-02-02T14:17:23.506Z,4.27
2023-02-02T14:19:51.031Z,4.20
2023-02-02T14:22:18.700Z,4.14
2023-02-02T14:24:45.957Z,4.11
2023-02-02T14:27:15.964Z,4.04
2023-02-02T14:29:46.986Z,4.07
2023-02-02T14:32:19.684Z,4.07
2023-02-02T14:34:46.546Z,4.03
2023-02-02T14:37:26.375Z,4.00
2023-02-02T14:40:11.103Z,3.98
2023-02-02T14:43:11.617Z,3.99
2023-02-02T14:45:41.780Z,4.06
2023-02-02T14:48:12.869Z,4.00
2023-02-02T14:50:39.468Z,4.03
2023-02-02T14:53:13.176Z,4.12
2023-02-02T14:56:06.350Z,4.06
2023-02-02T14:58:51.433Z,4.06
2023-02-02T15:01:17.993Z,4.06
2023-02-02T15:03:48.888Z,3.98
2023-02-02T15:06:15.441Z,3.95
2023-02-02T15:08:41.896Z,3.94
2023-02-02T15:11:26.949Z,3.90
2023-02-02T15:13:54.845Z,3.91
2023-02-02T15:16:26.596Z,3.90
2023-02-02T15:18:57.703Z,3.89
2023-02-02T15:21:24.172Z,3.82
2023-02-02T15:23:50.887Z,3.83
2023-02-02T15:26:18.780Z,3.83
2023-02-02T15:29:05.668Z,3.81
2023-02-02T15:31:45.615Z,3.78
2023-02-02T15:34:30.822Z,3.74
2023-02-02T15:36:58.828Z,3.70
2023-02-02T15:39:42.172Z,3.70
2023-02-02T15:42:36.971Z,3.69
2023-02-02T15:45:03.670Z,3.66
2023-02-02T15:47:36.731Z,3.69
2023-02-02T15:50:04.181Z,3.70
2023-02-02T15:52:35.466Z,3.64
2023-02-02T15:55:02.005Z,3.59
2023-02-02T15:57:32.455Z,3.52
2023-02-02T15:59:59.295Z,3.56
2023-02-02T16:02:31.929Z,3.47
2023-02-02T16:04:58.421Z,3.45
2023-02-02T16:07:29.310Z,3.41
2023-02-02T16:09:55.844Z,3.37
2023-02-02T16:12:22.894Z,3.35
2023-02-02T16:14:50.138Z,3.33
2023-02-02T16:17:23.725Z,3.35
2023-02-02T16:19:50.867Z,3.34
2023-02-02T16:22:18.519Z,3.32
2023-02-02T16:24:47.291Z,3.26
2023-02-02T16:27:14.843Z,3.23
2023-02-02T16:29:41.527Z,3.20
2023-02-02T16:32:20.423Z,3.18
2023-02-02T16:34:47.325Z,3.16
2023-02-02T16:37:15.246Z,3.11
2023-02-02T16:39:41.718Z,3.11
2023-02-02T16:42:09.530Z,3.05
2023-02-02T16:44:39.255Z,3.02
2023-02-02T16:47:15.474Z,3.00
2023-02-02T16:49:41.975Z,3.00
2023-02-02T16:52:08.530Z,3.00
2023-02-02T16:54:35.010Z,3.01
2023-02-02T16:57:01.787Z,3.06
2023-02-02T16:59:29.360Z,3.06
2023-02-02T17:01:59.921Z,3.04
2023-02-02T17:04:30.407Z,3.02
2023-02-02T17:06:57.599Z,3.00
2023-02-02T17:09:34.579Z,2.96
2023-02-02T17:12:09.314Z,2.94
2023-02-02T17:14:42.812Z,2.99
2023-02-02T17:17:09.298Z,2.97
2023-02-02T17:19:35.869Z,3.03
2023-02-02T17:22:02.610Z,3.04
2023-02-02T17:24:29.148Z,3.04
2023-02-02T17:26:55.660Z,3.01
2023-02-02T17:29:22.238Z,2.97
2023-02-02T17:31:48.777Z,2.92
2023-02-02T17:34:15.465Z,2.94
2023-02-02T17:36:42.387Z,2.89
2023-02-02T17:39:11.485Z,2.86
2023-02-02T17:41:38.879Z,2.86
2023-02-02T17:44:05.615Z,2.83
2023-02-02T17:46:33.026Z,2.77
2023-02-02T17:48:59.599Z,2.73
2023-02-02T17:51:26.084Z,2.70
2023-02-02T17:53:55.431Z,2.67
2023-02-02T17:56:22.151Z,2.67
2023-02-02T17:58:48.615Z,2.67
2023-02-02T18:01:15.147Z,2.67
2023-02-02T18:03:41.671Z,2.65
2023-02-02T18:06:09.165Z,2.67
2023-02-02T18:08:35.635Z,2.65
2023-02-02T18:11:02.231Z,2.64
2023-02-02T18:13:28.752Z,2.63
2023-02-02T18:15:56.260Z,2.61
2023-02-02T18:18:23.001Z,2.67
2023-02-02T18:20:49.766Z,2.62
2023-02-02T18:23:16.445Z,2.70
2023-02-02T18:25:42.958Z,2.66
2023-02-02T18:28:09.610Z,2.61
2023-02-02T18:30:39.480Z,2.60
2023-02-02T18:33:07.251Z,2.59
2023-02-02T18:35:33.727Z,2.58
2023-02-02T18:38:00.215Z,2.57
2023-02-02T18:40:26.686Z,2.60
2023-02-02T18:42:55.557Z,2.56
2023-02-02T18:45:22.265Z,2.56
2023-02-02T18:47:49.458Z,2.59
2023-02-02T18:50:16.191Z,2.61
2023-02-02T18:52:42.699Z,2.62
2023-02-02T18:55:09.272Z,2.65
2023-02-02T18:57:35.817Z,2.73
2023-02-02T19:00:02.594Z,2.84
2023-02-02T19:02:29.093Z,2.81
2023-02-02T19:05:14.507Z,2.63
2023-02-02T19:07:56.219Z,2.48
2023-02-02T19:10:23.149Z,2.35
2023-02-02T19:12:57.756Z,2.27
2023-02-02T19:15:26.062Z,2.15
2023-02-02T19:17:53.145Z,2.06
2023-02-02T19:20:19.649Z,2.04
2023-02-02T19:22:46.457Z,1.94
2023-02-02T19:25:13.080Z,1.93
2023-02-02T19:27:39.760Z,1.80
2023-02-02T19:30:08.833Z,1.70
2023-02-02T19:32:36.292Z,1.65
2023-02-02T19:35:02.877Z,1.66
2023-02-02T19:37:30.057Z,1.75
2023-02-02T19:40:16.878Z,1.55
2023-02-02T19:43:18.826Z,1.46
2023-02-02T19:45:45.287Z,1.28
2023-02-02T19:48:23.592Z,1.37
2023-02-02T19:50:50.090Z,1.25
2023-02-02T19:53:20.646Z,1.20
2023-02-02T19:55:47.275Z,1.16
2023-02-02T19:58:13.771Z,1.12
2023-02-02T20:00:40.979Z,1.16
2023-02-02T20:03:23.401Z,1.20
2023-02-02T20:05:50.810Z,1.18
2023-02-02T20:08:24.232Z,1.14
2023-02-02T20:10:54.362Z,1.37
2023-02-02T20:13:21.863Z,1.40
2023-02-02T20:15:49.157Z,1.49
2023-02-02T20:18:25.281Z,1.36
2023-02-02T20:20:53.305Z,1.36
2023-02-02T20:23:25.845Z,1.32
2023-02-02T20:25:52.334Z,1.40
2023-02-02T20:28:37.649Z,1.44
2023-02-02T20:31:04.805Z,1.34
2023-02-02T20:33:31.357Z,1.26
2023-02-02T20:35:57.860Z,1.26
2023-02-02T20:38:25.283Z,1.26
2023-02-02T20:40:52.217Z,1.27
2023-02-02T20:43:18.747Z,1.28
2023-02-02T20:45:45.260Z,1.21
2023-02-02T20:48:12.410Z,1.16
2023-02-02T20:50:39.069Z,1.15
2023-02-02T20:53:05.751Z,1.06
2023-02-02T20:55:36.101Z,1.03
2023-02-02T20:58:03.562Z,1.04
2023-02-02T21:00:30.253Z,0.97
2023-02-02T21:02:56.750Z,1.10
2023-02-02T21:05:23.309Z,1.00
2023-02-02T21:07:54.597Z,0.90
2023-02-02T21:10:22.157Z,0.87
2023-02-02T21:12:51.785Z,0.87
2023-02-02T21:15:19.203Z,0.71
2023-02-02T21:17:45.792Z,0.55
2023-02-02T21:20:13.035Z,0.58
2023-02-02T21:22:39.640Z,0.56
2023-02-02T21:25:06.328Z,0.52
2023-02-02T21:27:32.869Z,0.38
2023-02-02T21:29:59.397Z,0.25
2023-02-02T21:32:25.877Z,0.23
2023-02-02T21:34:52.450Z,0.20
2023-02-02T21:37:18.948Z,0.12
2023-02-02T21:39:49.635Z,0.13
2023-02-02T21:42:19.839Z,0.18
2023-02-02T21:44:54.308Z,0.07
2023-02-02T21:47:27.085Z,0.14
2023-02-02T21:49:57.337Z,0.02
2023-02-02T21:52:23.857Z,-0.14
2023-02-02T21:54:50.429Z,-0.22
2023-02-02T21:57:16.955Z,-0.29
2023-02-02T21:59:45.642Z,-0.27
2023-02-02T22:02:30.993Z,-0.23
2023-02-02T22:04:57.916Z,-0.37
2023-02-02T22:07:25.062Z,-0.37
2023-02-02T22:09:51.526Z,-0.43
2023-02-02T22:12:18.585Z,-0.45
2023-02-02T22:14:45.379Z,-0.53
2023-02-02T22:17:20.249Z,-0.59
2023-02-02T22:19:46.775Z,-0.66
2023-02-02T22:22:13.300Z,-0.66
2023-02-02T22:24:39.797Z,-0.74
2023-02-02T22:27:14.888Z,-0.79
2023-02-02T22:29:41.350Z,-0.83
2023-02-02T22:35:29.472Z,-0.90
2023-02-02T22:37:56.017Z,-0.91
2023-02-02T22:40:22.802Z,-0.91
2023-02-02T22:42:53.240Z,-0.93
2023-02-02T22:45:19.763Z,-0.97
2023-02-02T22:47:47.642Z,-0.96
2023-02-02T22:50:15.058Z,-0.90
2023-02-02T22:52:42.020Z,-0.87
2023-02-02T22:58:36.978Z,-0.99
2023-02-02T23:01:03.512Z,-1.01
2023-02-02T23:03:30.059Z,-1.01
2023-02-02T23:05:56.583Z,-1.03
2023-02-02T23:08:23.066Z,-1.09
2023-02-02T23:10:49.661Z,-0.95
2023-02-02T23:13:16.154Z,-0.95
2023-02-02T23:15:42.664Z,-0.82
2023-02-02T23:18:09.191Z,-0.76
2023-02-02T23:20:35.620Z,-0.84
2023-02-02T23:23:02.155Z,-0.87
2023-02-02T23:25:28.664Z,-0.83
2023-02-02T23:27:55.132Z,-0.83
2023-02-02T23:30:24.427Z,-0.91
2023-02-02T23:32:51.324Z,-0.89
2023-02-02T23:35:17.839Z,-0.96
2023-02-02T23:37:44.384Z,-0.97
2023-02-02T23:40:11.237Z,-0.99
2023-02-02T23:42:37.781Z,-1.00
2023-02-02T23:45:04.415Z,-1.05
2023-02-02T23:47:32.277Z,-0.98
2023-02-02T23:49:58.775Z,-1.02
2023-02-02T23:52:25.255Z,-1.08
2023-02-02T23:54:52.913Z,-1.14
2023-02-02T23:57:19.419Z,-1.22
2023-02-02T23:59:46.007Z,-1.30
